Time;durP1;ratioP1;P1;durP2;ratioP2;P2;SDS_P1;SDS_P2;PMS_P1;PMS_P2;Temp;Humidity;BMP_temperature;BMP_pressure;BME280_temperature;BME280_humidity;BME280_pressure;Samples;Min_cycle;Max_cycle;Signal;HPM_P1;HPM_P2
2022/08/23 00:01:42;;;;;;;0.47;0.40;;;20.50;61.50;;;;;;6274907;22;20007;-73
2022/08/23 00:04:14;;;;;;;0.30;0.30;;;20.50;61.60;;;;;;6247816;22;20094;-74
2022/08/23 00:06:41;;;;;;;0.45;0.45;;;20.60;61.60;;;;;;6244796;22;20000;-74
2022/08/23 00:09:08;;;;;;;0.95;0.40;;;20.60;61.60;;;;;;6274965;22;20000;-73
2022/08/23 00:11:41;;;;;;;0.55;0.55;;;20.50;61.60;;;;;;6274708;22;20049;-74
2022/08/23 00:14:12;;;;;;;0.40;0.40;;;20.50;61.60;;;;;;6247662;22;20086;-73
2022/08/23 00:16:40;;;;;;;0.73;0.50;;;20.50;61.60;;;;;;6274793;22;20008;-73
2022/08/23 00:19:08;;;;;;;0.50;0.50;;;20.60;61.70;;;;;;6274418;22;20003;-73
2022/08/23 00:21:35;;;;;;;0.77;0.50;;;20.60;61.70;;;;;;6275161;22;20000;-73
2022/08/23 00:24:02;;;;;;;0.60;0.60;;;20.50;61.70;;;;;;6274733;22;20004;-73
2022/08/23 00:26:58;;;;;;;0.75;0.50;;;20.50;61.80;;;;;;6246284;22;20058;-73
2022/08/23 00:29:28;;;;;;;0.40;0.40;;;20.40;61.90;;;;;;6247677;22;20004;-73
2022/08/23 00:31:54;;;;;;;1.05;0.60;;;20.50;62.00;;;;;;6274631;22;20033;-73
2022/08/23 00:34:20;;;;;;;0.60;0.50;;;20.40;62.00;;;;;;6274414;22;19999;-73
2022/08/23 00:36:48;;;;;;;0.50;0.50;;;20.30;62.10;;;;;;6246484;22;20822;-73
2022/08/23 00:39:14;;;;;;;0.80;0.50;;;20.30;62.20;;;;;;6247577;22;19996;-73
2022/08/23 00:41:41;;;;;;;0.85;0.70;;;20.30;62.40;;;;;;6274933;22;20022;-73
2022/08/23 00:49:36;;;;;;;0.80;0.70;;;20.20;62.60;;;;;;6274558;22;20439;-73
2022/08/23 00:52:09;;;;;;;1.48;0.75;;;20.20;62.70;;;;;;6275103;22;20073;-73
2022/08/23 00:54:38;;;;;;;1.13;0.70;;;20.20;62.70;;;;;;6247018;22;20466;-73
2022/08/23 00:57:09;;;;;;;1.13;0.82;;;20.10;62.60;;;;;;6247164;22;20019;-73
2022/08/23 00:59:35;;;;;;;1.50;0.77;;;20.20;62.70;;;;;;6274836;22;20023;-73
2022/08/23 01:02:05;;;;;;;1.23;0.73;;;20.20;62.80;;;;;;6274443;22;19996;-73
2022/08/23 01:04:38;;;;;;;0.97;0.70;;;20.10;62.90;;;;;;6274414;22;20003;-73
2022/08/23 01:07:25;;;;;;;0.73;0.70;;;20.10;62.90;;;;;;6274684;22;20241;-73
2022/08/23 01:09:53;;;;;;;2.05;0.82;;;20.10;63.00;;;;;;6274447;22;20010;-73
2022/08/23 01:12:27;;;;;;;1.77;0.93;;;20.10;63.10;;;;;;6247530;22;20007;-73
2022/08/23 01:14:59;;;;;;;1.45;0.93;;;20.10;63.20;;;;;;6248365;22;20080;-73
2022/08/23 01:17:32;;;;;;;1.58;0.80;;;20.10;63.20;;;;;;6242976;22;20111;-73
2022/08/23 01:20:05;;;;;;;2.00;0.90;;;20.10;63.20;;;;;;6274514;22;20000;-73
2022/08/23 01:22:40;;;;;;;1.85;0.70;;;20.00;63.20;;;;;;6274232;22;20016;-73
2022/08/23 01:25:10;;;;;;;1.95;0.90;;;20.00;63.30;;;;;;6274140;22;20008;-73
2022/08/23 01:27:37;;;;;;;1.27;0.75;;;19.90;63.50;;;;;;6246325;22;20000;-73
2022/08/23 01:30:07;;;;;;;1.75;0.90;;;20.00;63.70;;;;;;6274988;22;20083;-73
2022/08/23 01:32:39;;;;;;;1.40;1.00;;;19.90;63.70;;;;;;6271416;22;20004;-73
2022/08/23 01:35:05;;;;;;;1.10;0.88;;;19.80;63.90;;;;;;6274075;22;20004;-74
2022/08/23 01:37:31;;;;;;;1.70;0.80;;;19.70;63.90;;;;;;6247144;22;20040;-73
2022/08/23 01:39:57;;;;;;;0.80;0.70;;;19.70;64.20;;;;;;6274322;22;20004;-73
2022/08/23 01:42:23;;;;;;;1.05;0.80;;;19.60;64.30;;;;;;6274163;22;20308;-73
2022/08/23 01:44:49;;;;;;;1.65;1.10;;;19.50;64.40;;;;;;6273834;22;20067;-73
2022/08/23 01:47:14;;;;;;;1.20;0.90;;;19.50;64.60;;;;;;6245939;22;20019;-73
2022/08/23 01:49:40;;;;;;;1.40;0.90;;;19.40;64.80;;;;;;6246971;22;20458;-73
2022/08/23 01:52:06;;;;;;;1.38;1.00;;;19.30;65.00;;;;;;6246834;22;20006;-73
2022/08/23 01:54:32;;;;;;;1.75;1.15;;;19.30;65.20;;;;;;6274361;22;20375;-73
2022/08/23 01:56:58;;;;;;;1.80;1.13;;;19.20;65.30;;;;;;6248450;22;20078;-73
2022/08/23 01:59:24;;;;;;;1.65;1.02;;;19.20;65.40;;;;;;6272780;22;20026;-73
2022/08/23 02:01:50;;;;;;;1.60;1.00;;;19.20;65.50;;;;;;6275308;22;19992;-73
2022/08/23 02:04:15;;;;;;;2.25;1.23;;;19.20;65.60;;;;;;6247204;22;20007;-73
2022/08/23 02:06:41;;;;;;;2.08;1.20;;;19.10;65.60;;;;;;6275543;22;20011;-73
2022/08/23 02:09:07;;;;;;;1.50;1.10;;;19.10;65.60;;;;;;6248338;22;20039;-73
2022/08/23 02:11:38;;;;;;;2.22;1.20;;;19.10;65.80;;;;;;6275657;22;20005;-73
2022/08/23 02:14:08;;;;;;;2.15;1.27;;;19.10;65.70;;;;;;6248325;22;20003;-73
2022/08/23 02:16:38;;;;;;;2.88;1.45;;;19.10;65.80;;;;;;6248106;22;20270;-73
2022/08/23 02:19:07;;;;;;;3.30;1.50;;;19.10;65.80;;;;;;6275361;22;19996;-73
2022/08/23 02:21:35;;;;;;;2.58;1.30;;;19.20;65.80;;;;;;6275464;22;20103;-73
2022/08/23 02:24:13;;;;;;;3.38;1.77;;;19.00;65.70;;;;;;6275108;22;20000;-73
2022/08/23 02:26:42;;;;;;;2.78;1.45;;;19.00;65.80;;;;;;6247972;22;20058;-73
2022/08/23 02:29:08;;;;;;;2.03;1.35;;;19.00;65.70;;;;;;6275105;22;19999;-73
2022/08/23 02:31:34;;;;;;;2.10;1.40;;;19.10;65.80;;;;;;6247706;22;20392;-73
2022/08/23 02:34:01;;;;;;;2.83;1.40;;;19.00;66.50;;;;;;6275324;22;19999;-73
2022/08/23 02:36:28;;;;;;;3.20;1.60;;;19.00;66.00;;;;;;6275309;22;20057;-73
2022/08/23 02:38:54;;;;;;;2.75;1.45;;;18.90;66.10;;;;;;6247935;22;19995;-73
2022/08/23 02:41:21;;;;;;;2.83;1.17;;;18.90;66.20;;;;;;6276051;22;20000;-73
2022/08/23 02:43:51;;;;;;;2.55;1.30;;;18.80;66.30;;;;;;6248435;22;20057;-72
2022/08/23 02:46:17;;;;;;;2.30;1.23;;;18.70;66.40;;;;;;6247936;22;20419;-73
2022/08/23 02:48:43;;;;;;;1.48;1.00;;;18.70;66.50;;;;;;6248197;22;20038;-73
2022/08/23 02:51:09;;;;;;;1.67;1.20;;;18.70;66.60;;;;;;6275103;22;20004;-72
2022/08/23 02:53:37;;;;;;;3.00;1.38;;;18.70;66.70;;;;;;6275892;22;20309;-73
2022/08/23 02:56:03;;;;;;;1.75;1.00;;;18.70;66.80;;;;;;6247756;22;20087;-73
2022/08/23 02:58:29;;;;;;;1.00;0.90;;;18.70;66.80;;;;;;6275199;22;20004;-73
2022/08/23 03:00:55;;;;;;;0.90;0.82;;;18.70;66.70;;;;;;6248959;22;20097;-73
2022/08/23 03:03:21;;;;;;;1.00;0.80;;;18.80;66.80;;;;;;6275164;22;20020;-73
2022/08/23 03:05:47;;;;;;;1.30;0.80;;;18.70;66.80;;;;;;6274715;22;20000;-73
2022/08/23 03:08:14;;;;;;;0.70;0.70;;;18.70;66.70;;;;;;6275593;22;20022;-73
2022/08/23 03:10:44;;;;;;;0.80;0.80;;;18.70;66.80;;;;;;6275054;22;20011;-73
2022/08/23 03:13:10;;;;;;;2.05;1.00;;;18.70;66.90;;;;;;6275224;22;19996;-72
2022/08/23 03:15:36;;;;;;;0.73;0.73;;;18.60;67.00;;;;;;6248058;22;20102;-73
2022/08/23 03:18:02;;;;;;;0.60;0.60;;;18.60;67.10;;;;;;6275704;22;20032;-73
2022/08/23 03:20:28;;;;;;;0.77;0.70;;;18.50;67.20;;;;;;6275065;22;20066;-73
2022/08/23 03:22:54;;;;;;;1.52;0.80;;;18.50;67.40;;;;;;6248484;22;20092;-73
2022/08/23 03:25:20;;;;;;;1.05;0.80;;;18.40;67.40;;;;;;6275522;22;19996;-73
2022/08/23 03:27:46;;;;;;;0.80;0.80;;;18.40;67.60;;;;;;6275446;22;19999;-73
2022/08/23 03:30:12;;;;;;;1.30;0.88;;;18.30;67.60;;;;;;6222863;22;20011;-73
2022/08/23 03:32:38;;;;;;;1.50;0.82;;;18.30;67.80;;;;;;6274969;22;20007;-72
2022/08/23 03:35:05;;;;;;;0.70;0.70;;;18.20;67.80;;;;;;6275165;22;20012;-73
2022/08/23 03:37:31;;;;;;;1.63;0.77;;;18.20;67.90;;;;;;6247630;22;20032;-73
2022/08/23 03:39:57;;;;;;;0.80;0.73;;;18.20;68.10;;;;;;6275013;22;20073;-73
2022/08/23 03:42:23;;;;;;;0.68;0.65;;;18.20;68.20;;;;;;6275095;22;20004;-73
2022/08/23 03:44:49;;;;;;;0.77;0.77;;;18.10;68.20;;;;;;6275194;22;20450;-73
2022/08/23 03:47:15;;;;;;;1.02;0.70;;;18.10;68.20;;;;;;6275648;22;20023;-72
2022/08/23 03:49:41;;;;;;;0.68;0.68;;;18.00;68.30;;;;;;6221475;22;20083;-73
2022/08/23 03:52:08;;;;;;;1.05;0.70;;;18.10;68.50;;;;;;6275599;22;20023;-73
2022/08/23 03:54:34;;;;;;;1.83;0.90;;;18.00;68.50;;;;;;6275396;22;20416;-72
2022/08/23 03:57:03;;;;;;;0.70;0.60;;;18.00;68.60;;;;;;6274873;22;20027;-73
2022/08/23 03:59:31;;;;;;;0.73;0.60;;;17.80;68.60;;;;;;6248396;22;20053;-72
2022/08/23 04:01:57;;;;;;;0.95;0.73;;;17.90;68.80;;;;;;6275817;22;20045;-73
2022/08/23 04:04:23;;;;;;;0.65;0.65;;;17.80;68.90;;;;;;6248373;22;19999;-73
2022/08/23 04:06:49;;;;;;;0.80;0.80;;;17.80;68.90;;;;;;6275478;22;20004;-73
2022/08/23 04:09:15;;;;;;;0.75;0.68;;;17.80;69.00;;;;;;6248562;22;20100;-72
2022/08/23 04:11:41;;;;;;;0.68;0.60;;;17.80;69.10;;;;;;6275414;22;20011;-73
2022/08/23 04:14:07;;;;;;;0.82;0.73;;;17.70;69.20;;;;;;6275407;22;20368;-73
2022/08/23 04:16:36;;;;;;;1.15;0.80;;;17.70;69.30;;;;;;6274929;22;20012;-73
2022/08/23 04:19:04;;;;;;;0.70;0.70;;;17.70;69.40;;;;;;6221645;22;20003;-72
2022/08/23 04:21:30;;;;;;;0.60;0.60;;;17.70;69.40;;;;;;6247873;22;20425;-73
2022/08/23 04:23:57;;;;;;;0.77;0.77;;;17.70;69.40;;;;;;6275154;22;20450;-73
2022/08/23 04:26:22;;;;;;;1.17;0.77;;;17.60;69.40;;;;;;6247925;22;20309;-73
2022/08/23 04:28:48;;;;;;;0.95;0.80;;;17.70;69.60;;;;;;6248093;22;20098;-72
2022/08/23 04:31:15;;;;;;;0.70;0.70;;;17.60;69.60;;;;;;6275619;22;20020;-73
2022/08/23 04:33:40;;;;;;;1.17;0.70;;;17.60;69.60;;;;;;6248101;22;20015;-73
2022/08/23 04:36:06;;;;;;;0.80;0.80;;;17.60;69.70;;;;;;6220654;22;20489;-73
2022/08/23 04:38:32;;;;;;;0.60;0.60;;;17.60;69.80;;;;;;6275350;22;20495;-73
2022/08/23 04:43:43;;;;;;;0.70;0.70;;;17.60;69.90;;;;;;6252216;22;20004;-73
2022/08/23 04:46:10;;;;;;;0.70;0.70;;;17.50;69.90;;;;;;6274895;22;20004;-72
2022/08/23 04:48:36;;;;;;;0.70;0.70;;;17.60;70.00;;;;;;6248611;22;19999;-73
2022/08/23 04:51:02;;;;;;;0.90;0.70;;;17.50;70.00;;;;;;6247972;22;20079;-73
2022/08/23 04:53:29;;;;;;;0.77;0.77;;;17.60;70.10;;;;;;6247187;22;20026;-73
2022/08/23 04:55:55;;;;;;;0.60;0.60;;;17.50;70.10;;;;;;6247827;22;20028;-73
2022/08/23 04:58:21;;;;;;;0.68;0.68;;;17.60;70.20;;;;;;6275706;22;19996;-72
2022/08/23 05:00:50;;;;;;;0.65;0.65;;;17.60;70.10;;;;;;6271696;22;20049;-72
2022/08/23 05:03:16;;;;;;;0.70;0.60;;;17.60;70.10;;;;;;6248423;22;20428;-73
2022/08/23 05:05:42;;;;;;;0.90;0.70;;;17.60;70.10;;;;;;6275226;22;19996;-73
2022/08/23 05:08:08;;;;;;;1.00;0.90;;;17.70;70.10;;;;;;6275282;22;20007;-73
2022/08/23 05:10:34;;;;;;;0.85;0.65;;;17.70;70.10;;;;;;6274824;22;20028;-73
2022/08/23 05:12:59;;;;;;;0.55;0.55;;;17.80;70.10;;;;;;6274650;22;20007;-73
2022/08/23 05:15:25;;;;;;;1.77;0.70;;;17.80;70.00;;;;;;6272098;22;20003;-73
2022/08/23 05:17:51;;;;;;;0.73;0.60;;;17.80;70.10;;;;;;6247414;22;20154;-73
2022/08/23 05:20:17;;;;;;;0.98;0.75;;;17.70;70.10;;;;;;6274996;22;19996;-73
2022/08/23 05:22:43;;;;;;;1.20;0.82;;;17.80;70.80;;;;;;6273050;22;20008;-73
2022/08/23 05:25:09;;;;;;;0.70;0.70;;;17.80;70.20;;;;;;6274597;22;20007;-72
2022/08/23 05:27:35;;;;;;;0.70;0.70;;;17.90;70.20;;;;;;6247529;22;20015;-73
2022/08/23 05:30:01;;;;;;;0.57;0.55;;;18.00;70.10;;;;;;6275266;22;20012;-73
2022/08/23 05:32:27;;;;;;;0.73;0.63;;;18.00;70.00;;;;;;6275885;22;20078;-73
2022/08/23 05:34:53;;;;;;;0.57;0.57;;;18.10;70.00;;;;;;6275846;22;20046;-73
2022/08/23 05:37:19;;;;;;;0.60;0.60;;;18.10;69.80;;;;;;6275865;22;20012;-73
2022/08/23 05:39:44;;;;;;;0.60;0.60;;;18.20;69.80;;;;;;6223441;22;20023;-73
2022/08/23 05:42:14;;;;;;;0.63;0.60;;;18.30;69.80;;;;;;6275485;22;20027;-73
2022/08/23 05:44:41;;;;;;;0.73;0.70;;;18.30;69.70;;;;;;6276461;22;20424;-72
2022/08/23 05:47:10;;;;;;;0.70;0.70;;;18.40;69.60;;;;;;6223028;22;20027;-72
2022/08/23 05:49:36;;;;;;;1.00;0.73;;;18.50;69.60;;;;;;6275539;22;20077;-73
2022/08/23 05:52:04;;;;;;;0.57;0.57;;;18.50;69.50;;;;;;6275552;22;20003;-72
2022/08/23 05:54:30;;;;;;;0.88;0.80;;;18.60;69.50;;;;;;6276146;22;19999;-73
2022/08/23 05:56:56;;;;;;;0.63;0.63;;;18.70;69.40;;;;;;6275490;22;20070;-73
2022/08/23 05:59:22;;;;;;;0.80;0.80;;;18.70;69.30;;;;;;6275290;22;20000;-73
2022/08/23 06:01:47;;;;;;;0.65;0.65;;;18.80;69.30;;;;;;6275598;22;20451;-73
2022/08/23 06:04:14;;;;;;;0.93;0.80;;;18.90;69.20;;;;;;6275902;22;20000;-73
2022/08/23 06:06:41;;;;;;;0.73;0.70;;;19.00;69.20;;;;;;6276263;22;19999;-73
2022/08/23 06:09:11;;;;;;;0.73;0.73;;;19.10;69.20;;;;;;6275069;22;20438;-73
2022/08/23 06:11:37;;;;;;;0.70;0.70;;;19.20;69.10;;;;;;6248642;22;20027;-73
2022/08/23 06:14:05;;;;;;;0.98;0.82;;;19.30;68.90;;;;;;6275518;22;20007;-73
2022/08/23 06:16:35;;;;;;;0.85;0.75;;;19.40;68.90;;;;;;6274834;22;20091;-73
2022/08/23 06:19:02;;;;;;;0.70;0.70;;;19.40;68.70;;;;;;6276141;22;19999;-73
2022/08/23 06:21:29;;;;;;;0.77;0.77;;;19.50;68.60;;;;;;6275433;22;20066;-73
2022/08/23 06:23:55;;;;;;;1.02;0.93;;;19.70;68.60;;;;;;6275189;22;20038;-73
2022/08/23 06:26:24;;;;;;;1.10;0.90;;;19.80;68.40;;;;;;6248319;22;20011;-73
2022/08/23 06:28:54;;;;;;;1.30;1.20;;;19.90;68.40;;;;;;6275203;22;20007;-73
2022/08/23 06:31:56;;;;;;;1.10;1.00;;;19.90;68.20;;;;;;6272209;22;20007;-73
2022/08/23 06:34:10;;;;;;;1.33;1.00;;;20.00;68.10;;;;;;6274811;22;20336;-73
2022/08/23 06:36:36;;;;;;;0.88;0.85;;;20.10;68.10;;;;;;6275274;22;20016;-73
2022/08/23 06:39:04;;;;;;;0.80;0.80;;;20.20;68.10;;;;;;6275773;22;20022;-73
2022/08/23 06:41:30;;;;;;;0.80;0.80;;;20.20;68.00;;;;;;6247687;22;20021;-73
2022/08/23 06:43:56;;;;;;;0.98;0.98;;;20.30;68.00;;;;;;6275695;22;20388;-73
2022/08/23 06:46:24;;;;;;;0.77;0.77;;;20.50;67.90;;;;;;6276080;22;20427;-72
2022/08/23 06:48:52;;;;;;;1.20;0.80;;;20.60;67.80;;;;;;6248415;22;20004;-73
2022/08/23 06:51:28;;;;;;;1.15;0.85;;;20.70;67.70;;;;;;6275703;22;20000;-73
2022/08/23 06:53:56;;;;;;;0.80;0.80;;;20.70;67.50;;;;;;6275105;22;20436;-73
2022/08/23 06:56:23;;;;;;;0.80;0.70;;;20.90;67.50;;;;;;6275383;22;20012;-73
2022/08/23 06:58:50;;;;;;;0.80;0.80;;;21.00;67.30;;;;;;6272080;22;20055;-73
2022/08/23 07:01:36;;;;;;;0.82;0.82;;;21.10;67.20;;;;;;6275054;22;20005;-73
2022/08/23 07:04:04;;;;;;;0.88;0.70;;;21.10;67.00;;;;;;6273242;22;20003;-73
2022/08/23 07:06:31;;;;;;;0.80;0.80;;;21.20;67.10;;;;;;6275657;22;20420;-73
2022/08/23 07:08:58;;;;;;;0.60;0.60;;;21.30;67.10;;;;;;6275246;22;20008;-73
2022/08/23 07:11:25;;;;;;;1.23;0.93;;;21.30;67.20;;;;;;6248548;22;20034;-73
2022/08/23 07:13:52;;;;;;;0.82;0.80;;;21.30;67.20;;;;;;6275637;22;20055;-73
2022/08/23 07:16:18;;;;;;;0.90;0.90;;;21.40;67.30;;;;;;6247430;22;20026;-73
2022/08/23 07:18:45;;;;;;;1.23;0.90;;;21.40;67.20;;;;;;6275324;22;20020;-73
2022/08/23 07:21:12;;;;;;;1.10;0.90;;;21.40;67.20;;;;;;6275526;22;20495;-73
2022/08/23 07:23:38;;;;;;;0.63;0.63;;;21.50;67.30;;;;;;6275387;22;20089;-73
2022/08/23 07:26:11;;;;;;;1.08;0.73;;;21.50;67.30;;;;;;6275657;22;20069;-73
2022/08/23 07:28:38;;;;;;;0.70;0.70;;;21.50;67.30;;;;;;6249759;22;20019;-72
2022/08/23 07:31:16;;;;;;;1.42;1.00;;;21.70;67.40;;;;;;6275939;22;20019;-72
2022/08/23 07:33:44;;;;;;;0.80;0.80;;;21.60;67.30;;;;;;6273458;22;20008;-73
2022/08/23 07:36:15;;;;;;;1.27;0.88;;;21.60;67.20;;;;;;6275234;22;20002;-73
2022/08/23 07:38:41;;;;;;;0.80;0.80;;;21.70;67.30;;;;;;6272678;22;19996;-73
2022/08/23 07:41:07;;;;;;;1.10;1.00;;;21.70;67.30;;;;;;6248814;22;20004;-73
2022/08/23 07:43:33;;;;;;;1.40;1.00;;;21.70;67.30;;;;;;6275704;22;20083;-73
2022/08/23 07:46:00;;;;;;;0.88;0.82;;;21.80;67.30;;;;;;6248085;22;20011;-73
2022/08/23 07:48:26;;;;;;;1.10;0.90;;;21.80;67.20;;;;;;6275038;22;19999;-73
2022/08/23 07:50:56;;;;;;;0.95;0.93;;;21.90;67.10;;;;;;6275311;22;20003;-73
2022/08/23 07:53:23;;;;;;;1.58;0.95;;;22.00;67.00;;;;;;6275108;22;20000;-73
2022/08/23 07:55:48;;;;;;;1.30;1.05;;;22.10;66.90;;;;;;6248300;22;20007;-73
2022/08/23 07:58:14;;;;;;;0.77;0.77;;;22.10;66.70;;;;;;6275039;22;20019;-73
2022/08/23 08:00:40;;;;;;;1.05;0.90;;;22.20;66.60;;;;;;6275290;22;20116;-73
2022/08/23 08:03:06;;;;;;;1.92;0.93;;;22.30;66.40;;;;;;6275169;22;20002;-73
2022/08/23 08:05:33;;;;;;;1.27;0.95;;;22.40;66.20;;;;;;6275695;22;20065;-73
2022/08/23 08:07:58;;;;;;;1.45;0.90;;;22.60;66.10;;;;;;6275569;22;20026;-74
2022/08/23 08:10:24;;;;;;;1.35;0.98;;;22.70;65.80;;;;;;6247460;22;20431;-73
2022/08/23 08:12:50;;;;;;;1.58;1.15;;;22.80;65.60;;;;;;6275000;22;20415;-73
2022/08/23 08:15:18;;;;;;;1.02;0.80;;;23.00;65.50;;;;;;6275365;22;20039;-73
2022/08/23 08:17:47;;;;;;;0.88;0.88;;;23.10;65.20;;;;;;6275151;22;20012;-73
2022/08/23 08:20:14;;;;;;;3.92;1.48;;;23.30;65.00;;;;;;6275708;22;20022;-73
2022/08/23 08:22:40;;;;;;;1.30;1.00;;;23.40;64.50;;;;;;6275809;22;19996;-73
2022/08/23 08:25:08;;;;;;;2.30;0.88;;;23.50;64.30;;;;;;6275807;22;20000;-73
2022/08/23 08:27:33;;;;;;;1.30;1.10;;;23.80;64.10;;;;;;6247744;22;20439;-73
2022/08/23 08:29:59;;;;;;;1.00;0.90;;;24.00;63.70;;;;;;6248687;22;19996;-73
2022/08/23 08:32:25;;;;;;;0.75;0.68;;;24.20;63.50;;;;;;6247963;22;20427;-74
2022/08/23 08:34:51;;;;;;;1.50;1.10;;;24.30;63.20;;;;;;6274829;22;20003;-73
2022/08/23 08:37:17;;;;;;;1.52;1.00;;;24.60;63.10;;;;;;6247844;22;20011;-74
2022/08/23 08:39:45;;;;;;;1.25;1.10;;;24.70;62.80;;;;;;6275025;22;19996;-73
2022/08/23 08:42:41;;;;;;;2.25;1.10;;;24.80;62.60;;;;;;6274851;22;20000;-73
2022/08/23 08:45:17;;;;;;;1.23;0.93;;;25.00;62.40;;;;;;6274901;22;20023;-73
2022/08/23 08:47:58;;;;;;;1.13;0.93;;;25.10;62.20;;;;;;6274735;22;20008;-73
2022/08/23 08:50:32;;;;;;;2.50;1.30;;;25.10;62.10;;;;;;6275025;22;20328;-73
2022/08/23 08:53:08;;;;;;;1.13;0.90;;;25.30;62.20;;;;;;6274677;22;20011;-73
2022/08/23 08:55:42;;;;;;;0.93;0.77;;;25.40;62.80;;;;;;6247532;22;20337;-73
2022/08/23 08:58:18;;;;;;;2.88;1.20;;;25.50;62.00;;;;;;6274470;22;20034;-73
2022/08/23 09:00:45;;;;;;;1.45;1.10;;;25.60;61.80;;;;;;6274804;22;19995;-73
2022/08/23 09:03:19;;;;;;;1.50;0.90;;;25.80;61.70;;;;;;6274521;22;20058;-74
2022/08/23 09:05:54;;;;;;;0.95;0.90;;;25.90;61.50;;;;;;6249252;22;20079;-73
2022/08/23 09:08:44;;;;;;;1.08;0.70;;;26.00;61.30;;;;;;6274553;22;20000;-74
2022/08/23 09:11:30;;;;;;;1.08;0.73;;;26.20;61.20;;;;;;6274414;22;20412;-74
2022/08/23 09:14:15;;;;;;;1.08;0.90;;;26.30;61.10;;;;;;6274439;22;20019;-73
2022/08/23 09:16:51;;;;;;;0.80;0.80;;;26.40;60.90;;;;;;6275451;22;20011;-73
2022/08/23 09:19:18;;;;;;;0.70;0.70;;;26.50;60.70;;;;;;6247523;22;20412;-73
2022/08/23 09:21:52;;;;;;;0.73;0.70;;;26.60;60.50;;;;;;6247305;22;20020;-73
2022/08/23 09:24:18;;;;;;;1.13;0.90;;;26.80;60.40;;;;;;6247334;22;20082;-73
2022/08/23 09:26:44;;;;;;;1.17;0.90;;;26.80;60.30;;;;;;6274397;22;20024;-73
2022/08/23 09:29:23;;;;;;;1.55;0.85;;;26.90;60.10;;;;;;6274669;22;20000;-73
2022/08/23 09:31:54;;;;;;;0.80;0.70;;;26.90;60.00;;;;;;6271186;22;20135;-74
2022/08/23 09:34:37;;;;;;;0.80;0.80;;;27.00;60.10;;;;;;6275072;22;19999;-73
2022/08/23 09:37:28;;;;;;;0.93;0.70;;;27.00;59.90;;;;;;6275038;22;20050;-73
2022/08/23 09:40:16;;;;;;;0.80;0.80;;;27.20;59.70;;;;;;6247828;22;20384;-73
2022/08/23 09:42:42;;;;;;;1.35;0.90;;;27.30;59.50;;;;;;6246948;22;20305;-74
2022/08/23 09:45:24;;;;;;;0.70;0.70;;;27.40;59.50;;;;;;6248061;22;20069;-74
2022/08/23 09:47:50;;;;;;;0.70;0.70;;;27.30;59.30;;;;;;6274271;22;20004;-73
2022/08/23 09:50:33;;;;;;;0.60;0.60;;;27.40;59.30;;;;;;6221861;22;20034;-74
2022/08/23 09:53:05;;;;;;;0.80;0.65;;;27.50;59.20;;;;;;6274328;22;20000;-74
2022/08/23 09:55:38;;;;;;;0.60;0.60;;;27.70;59.10;;;;;;6247211;22;20026;-73
2022/08/23 09:58:26;;;;;;;1.65;0.88;;;27.60;58.90;;;;;;6247933;22;20138;-74
2022/08/23 10:01:10;;;;;;;0.90;0.90;;;27.80;58.90;;;;;;6273738;22;20000;-73
2022/08/23 10:03:36;;;;;;;0.82;0.75;;;27.80;58.50;;;;;;6274237;22;20007;-73
2022/08/23 10:06:02;;;;;;;0.85;0.75;;;27.90;58.40;;;;;;6221924;22;19999;-73
2022/08/23 10:08:32;;;;;;;1.17;1.08;;;28.00;58.30;;;;;;6274726;22;20417;-73
2022/08/23 10:11:12;;;;;;;0.70;0.70;;;28.00;58.10;;;;;;6274124;22;20004;-73
2022/08/23 10:13:40;;;;;;;0.70;0.65;;;28.00;58.20;;;;;;6274804;22;20003;-74
2022/08/23 10:16:31;;;;;;;0.80;0.77;;;27.80;58.20;;;;;;6274236;22;20000;-73
2022/08/23 10:19:35;;;;;;;1.65;0.85;;;27.90;58.30;;;;;;6275430;22;20003;-73
2022/08/23 10:22:25;;;;;;;2.00;0.80;;;27.90;58.10;;;;;;6275393;22;20423;-73
2022/08/23 10:25:03;;;;;;;0.70;0.70;;;28.00;58.00;;;;;;6275672;22;20014;-73
2022/08/23 10:30:55;;;;;;;0.60;0.60;;;28.10;57.60;;;;;;6275311;22;20313;-73
2022/08/23 10:33:25;;;;;;;;;;;28.20;57.50;;;;;;6249107;22;20332;-73
2022/08/23 10:36:15;;;;;;;0.80;0.70;;;28.20;57.50;;;;;;6275732;22;19906;-73
2022/08/23 10:38:56;;;;;;;0.70;0.70;;;28.30;57.40;;;;;;6275349;22;20505;-73
2022/08/23 10:41:42;;;;;;;0.77;0.77;;;28.30;57.20;;;;;;6275253;22;20000;-73
2022/08/23 10:44:22;;;;;;;0.73;0.73;;;28.30;56.90;;;;;;6275629;22;20035;-74
2022/08/23 10:47:10;;;;;;;1.20;0.80;;;28.40;56.90;;;;;;6224042;22;20494;-73
2022/08/23 10:49:38;;;;;;;1.33;0.85;;;28.40;56.70;;;;;;6248354;22;20097;-73
2022/08/23 10:52:08;;;;;;;0.70;0.70;;;28.30;56.70;;;;;;6275320;22;20004;-73
2022/08/23 10:54:45;;;;;;;0.70;0.63;;;28.30;56.70;;;;;;6275355;22;20332;-73
2022/08/23 10:57:16;;;;;;;1.65;0.85;;;28.40;56.60;;;;;;6244893;22;20321;-73
2022/08/23 10:59:44;;;;;;;1.20;0.82;;;28.30;56.30;;;;;;6248261;22;20004;-73
2022/08/23 11:02:34;;;;;;;0.63;0.60;;;28.30;56.30;;;;;;6275674;22;20054;-74
2022/08/23 11:05:02;;;;;;;;;;;28.30;56.10;;;;;;6247408;22;19995;-73
2022/08/23 11:07:33;;;;;;;1.00;0.70;;;28.40;56.20;;;;;;6275233;22;19982;-74
2022/08/23 11:10:14;;;;;;;0.75;0.75;;;28.40;56.00;;;;;;6275255;22;20004;-74
2022/08/23 11:13:17;;;;;;;0.60;0.50;;;28.50;55.90;;;;;;6276080;22;20079;-74
2022/08/23 11:15:55;;;;;;;1.20;0.70;;;28.60;55.60;;;;;;6248117;22;20012;-74
2022/08/23 11:18:41;;;;;;;1.23;0.90;;;28.70;55.30;;;;;;6275084;22;20015;-73
2022/08/23 11:21:32;;;;;;;0.82;0.82;;;28.70;55.00;;;;;;6222671;22;19999;-74
2022/08/23 11:24:28;;;;;;;1.17;0.80;;;28.70;54.90;;;;;;6253082;22;20019;-74
2022/08/23 11:27:04;;;;;;;0.90;0.80;;;28.70;54.70;;;;;;6254785;22;20416;-74
2022/08/23 11:29:31;;;;;;;1.63;0.88;;;28.80;54.60;;;;;;6274988;22;20004;-74
2022/08/23 11:32:16;;;;;;;1.30;0.80;;;28.90;54.50;;;;;;6247894;22;20442;-74
2022/08/23 11:34:52;;;;;;;1.05;0.80;;;29.00;54.20;;;;;;6275257;22;20126;-74
2022/08/23 11:37:27;;;;;;;0.70;0.70;;;28.90;54.10;;;;;;6275069;22;20420;-73
2022/08/23 11:40:08;;;;;;;1.02;0.73;;;28.90;54.20;;;;;;6274995;22;20420;-74
2022/08/23 11:42:50;;;;;;;0.70;0.70;;;28.80;54.10;;;;;;6275224;22;19996;-74
2022/08/23 11:45:41;;;;;;;1.05;0.90;;;28.90;54.00;;;;;;6275264;22;20405;-74
2022/08/23 11:48:34;;;;;;;0.60;0.60;;;29.00;53.80;;;;;;6248287;22;20005;-74
2022/08/23 11:51:14;;;;;;;1.13;0.90;;;29.20;53.60;;;;;;6275071;22;20077;-74
2022/08/23 11:54:10;;;;;;;0.95;0.60;;;29.30;53.30;;;;;;6247984;22;20055;-74
2022/08/23 11:57:00;;;;;;;1.00;0.90;;;29.40;53.20;;;;;;6252662;22;20008;-74
2022/08/23 11:59:40;;;;;;;0.90;0.80;;;29.40;53.20;;;;;;6274954;22;19999;-74
2022/08/23 12:02:40;;;;;;;0.82;0.70;;;29.30;53.40;;;;;;6274953;22;19996;-74
2022/08/23 12:05:31;;;;;;;1.00;0.85;;;29.10;53.50;;;;;;6275047;22;20000;-74
2022/08/23 12:08:27;;;;;;;1.48;0.90;;;29.00;53.70;;;;;;6275089;22;20053;-74
2022/08/23 12:10:59;;;;;;;1.25;0.70;;;28.90;53.80;;;;;;6275183;22;20415;-74
2022/08/23 12:13:42;;;;;;;0.98;0.90;;;29.00;53.70;;;;;;6274986;22;20408;-74
2022/08/23 12:16:27;;;;;;;1.00;0.80;;;29.00;53.60;;;;;;6275427;22;20003;-74
2022/08/23 12:18:57;;;;;;;1.00;0.90;;;29.10;53.60;;;;;;6275597;22;20000;-74
2022/08/23 12:21:28;;;;;;;0.95;0.88;;;29.10;53.50;;;;;;6275740;22;20117;-74
2022/08/23 12:23:57;;;;;;;0.90;0.90;;;29.00;53.40;;;;;;6274842;22;20022;-74
2022/08/23 12:26:42;;;;;;;0.98;0.90;;;29.10;53.50;;;;;;6248719;22;19999;-74
2022/08/23 12:29:32;;;;;;;1.65;0.65;;;29.20;53.30;;;;;;6274930;22;20424;-74
2022/08/23 12:32:22;;;;;;;0.75;0.75;;;29.30;53.10;;;;;;6274822;22;20058;-74
2022/08/23 12:35:00;;;;;;;0.60;0.60;;;29.50;52.90;;;;;;6274831;22;20011;-74
2022/08/23 12:37:38;;;;;;;1.52;0.90;;;29.50;52.50;;;;;;6275097;22;20427;-74
2022/08/23 12:40:10;;;;;;;1.10;0.90;;;29.40;52.40;;;;;;6274878;22;20011;-74
2022/08/23 12:42:38;;;;;;;0.98;0.90;;;29.40;52.50;;;;;;6222459;22;20003;-74
2022/08/23 12:45:17;;;;;;;1.48;1.00;;;29.40;52.50;;;;;;6248530;22;20011;-74
2022/08/23 12:47:55;;;;;;;1.90;0.90;;;29.30;52.50;;;;;;6241358;22;20416;-74
2022/08/23 12:50:29;;;;;;;0.70;0.70;;;29.20;52.60;;;;;;6275688;22;20078;-74
2022/08/23 12:52:59;;;;;;;0.70;0.70;;;29.20;52.80;;;;;;6274826;22;19999;-74
2022/08/23 12:55:31;;;;;;;0.70;0.70;;;29.20;52.80;;;;;;6271435;22;20011;-74
2022/08/23 12:57:58;;;;;;;0.60;0.60;;;29.20;52.80;;;;;;6274644;22;20034;-74
2022/08/23 13:00:30;;;;;;;0.68;0.60;;;29.20;52.80;;;;;;6275247;22;20030;-73
2022/08/23 13:03:05;;;;;;;0.80;0.50;;;29.20;52.70;;;;;;6274724;22;20007;-74
2022/08/23 13:05:47;;;;;;;1.30;0.70;;;29.20;52.70;;;;;;6247532;22;20110;-74
2022/08/23 13:08:19;;;;;;;0.93;0.70;;;29.40;52.60;;;;;;6275357;22;20006;-74
2022/08/23 13:10:46;;;;;;;0.70;0.70;;;29.40;52.40;;;;;;6274098;22;20004;-74
2022/08/23 13:13:17;;;;;;;1.17;0.73;;;29.40;52.30;;;;;;6274966;22;20038;-74
2022/08/23 13:15:56;;;;;;;0.80;0.80;;;29.60;52.10;;;;;;6274908;22;20003;-74
2022/08/23 13:18:32;;;;;;;0.80;0.80;;;29.70;52.00;;;;;;6274597;22;20007;-74
2022/08/23 13:21:31;;;;;;;0.75;0.75;;;29.80;51.80;;;;;;6275487;22;20003;-74